Time;durP1;ratioP1;P1;durP2;ratioP2;P2;SDS_P1;SDS_P2;PMS_P1;PMS_P2;Temp;Humidity;BMP_temperature;BMP_pressure;BME280_temperature;BME280_humidity;BME280_pressure;Samples;Min_cycle;Max_cycle;Signal;HPM_P1;HPM_P2
2022/03/23 00:09:34;;;;;;;53.5;72.9;;;;;;;0.9;66.8;100430;;;;
2022/03/23 00:19:34;;;;;;;53.5;72.9;;;;;;;0.6;67.2;100430;;;;
2022/03/23 00:30:34;;;;;;;53.5;72.9;;;;;;;0.2;67.3;100420;;;;
2022/03/23 00:40:34;;;;;;;55.1;72.2;;;;;;;0.2;70.7;100410;;;;
2022/03/23 00:51:34;;;;;;;55.1;72.2;;;;;;;0;68.7;100390;;;;
2022/03/23 01:02:34;;;;;;;55.1;72.2;;;;;;;-0.4;70.3;100400;;;;
2022/03/23 01:12:34;;;;;;;45.6;69.7;;;;;;;-0.5;70.1;100390;;;;
2022/03/23 01:22:34;;;;;;;45.6;69.7;;;;;;;-0.6;70.3;100380;;;;
2022/03/23 01:33:35;;;;;;;45.6;69.7;;;;;;;-0.8;73.8;100370;;;;
2022/03/23 01:43:34;;;;;;;47.2;74.5;;;;;;;-0.7;72.8;100380;;;;
2022/03/23 01:53:34;;;;;;;47.2;74.5;;;;;;;-0.9;72.2;100370;;;;
2022/03/23 02:04:34;;;;;;;47.2;74.5;;;;;;;-1.1;72;100360;;;;
2022/03/23 02:15:34;;;;;;;48.3;70;;;;;;;-1.2;72.5;100350;;;;
2022/03/23 02:26:34;;;;;;;48.3;70;;;;;;;-1.3;73;100340;;;;
2022/03/23 02:36:35;;;;;;;40;60.4;;;;;;;-1.4;72.7;100340;;;;
2022/03/23 02:47:34;;;;;;;40;60.4;;;;;;;-1.6;73.7;100350;;;;
2022/03/23 03:09:34;;;;;;;42.2;66.4;;;;;;;-1.6;75.5;100330;;;;
2022/03/23 03:20:34;;;;;;;42.2;66.4;;;;;;;-1.6;76.5;100330;;;;
2022/03/23 03:30:35;;;;;;;42.2;66.4;;;;;;;-1.8;75.2;100330;;;;
2022/03/23 03:40:35;;;;;;;48.4;75.1;;;;;;;-1.9;75.3;100330;;;;
2022/03/23 03:50:34;;;;;;;48.4;75.1;;;;;;;-2.1;74.8;100340;;;;
2022/03/23 04:01:35;;;;;;;48.4;75.1;;;;;;;-2.1;78.3;100330;;;;
2022/03/23 04:12:34;;;;;;;41.4;62.8;;;;;;;-1.9;77.8;100320;;;;
2022/03/23 04:23:34;;;;;;;41.4;62.8;;;;;;;-1.9;77.7;100310;;;;
2022/03/23 04:34:34;;;;;;;34.5;49.3;;;;;;;-2;76.5;100310;;;;
2022/03/23 04:45:35;;;;;;;34.5;49.3;;;;;;;-2.2;76.1;100320;;;;
2022/03/23 04:56:34;;;;;;;34.5;49.3;;;;;;;-2.3;75.7;100310;;;;
2022/03/23 05:07:34;;;;;;;37;54.4;;;;;;;-2.1;77.5;100300;;;;
2022/03/23 05:17:34;;;;;;;37;54.4;;;;;;;-1.8;77.5;100300;;;;
2022/03/23 05:27:34;;;;;;;37;54.4;;;;;;;-1.6;77.2;100310;;;;
2022/03/23 05:38:34;;;;;;;34.6;55.9;;;;;;;-1.3;76.6;100300;;;;
2022/03/23 05:49:34;;;;;;;34.6;55.9;;;;;;;-0.7;76.2;100280;;;;
2022/03/23 06:00:34;;;;;;;34.6;55.9;;;;;;;-0.2;75.2;100290;;;;
2022/03/23 06:11:34;;;;;;;46;64.2;;;;;;;0.1;73.2;100290;;;;
2022/03/23 06:21:34;;;;;;;46;64.2;;;;;;;0.8;72.5;100300;;;;
2022/03/23 06:32:34;;;;;;;46;64.2;;;;;;;1.4;70.9;100300;;;;
2022/03/23 06:42:34;;;;;;;68.4;84.8;;;;;;;2;69.5;100310;;;;
2022/03/23 06:53:34;;;;;;;68.4;84.8;;;;;;;2.6;68.3;100310;;;;
2022/03/23 07:03:34;;;;;;;68.4;84.8;;;;;;;3.2;66.7;100320;;;;
2022/03/23 07:13:34;;;;;;;81.1;93.5;;;;;;;3.7;65.8;100310;;;;
2022/03/23 07:24:34;;;;;;;81.1;93.5;;;;;;;4.5;64.2;100320;;;;
2022/03/23 07:35:34;;;;;;;71.5;87.2;;;;;;;5.2;62.3;100320;;;;
2022/03/23 07:45:34;;;;;;;71.5;87.2;;;;;;;5.8;59.4;100310;;;;
2022/03/23 07:55:34;;;;;;;71.5;87.2;;;;;;;6.4;55.9;100310;;;;
2022/03/23 08:06:35;;;;;;;37;44.1;;;;;;;7.3;52.5;100290;;;;
2022/03/23 08:16:34;;;;;;;37;44.1;;;;;;;8.1;50.8;100290;;;;
2022/03/23 08:26:34;;;;;;;37;44.1;;;;;;;8.8;48.2;100290;;;;
2022/03/23 08:37:34;;;;;;;24;29.5;;;;;;;9.6;46.1;100280;;;;
2022/03/23 08:48:34;;;;;;;24;29.5;;;;;;;10.3;45.2;100270;;;;
2022/03/23 08:58:34;;;;;;;24;29.5;;;;;;;11.3;41.2;100270;;;;
2022/03/23 09:08:34;;;;;;;19.6;29.8;;;;;;;11.9;39.5;100260;;;;
2022/03/23 09:18:34;;;;;;;19.6;29.8;;;;;;;12.6;37.6;100260;;;;
2022/03/23 09:28:34;;;;;;;19.6;29.8;;;;;;;13;36.8;100260;;;;
2022/03/23 09:39:34;;;;;;;18;22.4;;;;;;;13.7;34.4;100250;;;;
2022/03/23 09:49:34;;;;;;;18;22.4;;;;;;;14.3;31.9;100240;;;;
2022/03/23 10:00:34;;;;;;;18;22.4;;;;;;;14.7;31.8;100220;;;;
2022/03/23 10:10:35;;;;;;;13.8;19.9;;;;;;;15.1;31.2;100210;;;;
2022/03/23 10:21:34;;;;;;;13.8;19.9;;;;;;;15.6;27.8;100190;;;;
2022/03/23 10:31:34;;;;;;;13.8;19.9;;;;;;;15.9;27.1;100180;;;;
2022/03/23 10:42:34;;;;;;;12.1;16.9;;;;;;;16.3;26.6;100160;;;;
2022/03/23 10:52:34;;;;;;;12.1;16.9;;;;;;;16.9;26.2;100150;;;;
2022/03/23 11:02:34;;;;;;;12.1;16.9;;;;;;;17.2;26.4;100130;;;;
2022/03/23 11:23:35;;;;;;;12.6;17;;;;;;;17.9;22.6;100100;;;;
2022/03/23 11:34:36;;;;;;;10.2;15.9;;;;;;;18.2;18.3;100080;;;;
2022/03/23 11:44:36;;;;;;;10.2;15.9;;;;;;;18.4;19.1;100060;;;;
2022/03/23 11:55:38;;;;;;;10.2;15.9;;;;;;;18.7;18.6;100040;;;;
2022/03/23 12:06:35;;;;;;;8.7;11.5;;;;;;;18.9;15.9;100020;;;;
2022/03/23 12:16:35;;;;;;;8.7;11.5;;;;;;;19.2;18.2;100010;;;;
2022/03/23 12:27:35;;;;;;;8.7;11.5;;;;;;;19.1;15.5;99990;;;;
2022/03/23 12:37:34;;;;;;;5.9;10.3;;;;;;;19.3;14;99980;;;;
2022/03/23 12:58:35;;;;;;;5.9;10.3;;;;;;;19.6;15.5;99960;;;;
2022/03/23 13:08:38;;;;;;;4.3;9.1;;;;;;;19.4;14.2;99950;;;;
2022/03/23 13:19:35;;;;;;;4.3;9.1;;;;;;;19.6;12.6;99930;;;;
2022/03/23 13:29:35;;;;;;;4.3;9.1;;;;;;;19.8;11.2;99930;;;;
2022/03/23 13:43:19;;;;;;;3.6;6.7;;;;;;;19.7;12.1;99910;;;;
2022/03/23 13:50:35;;;;;;;3.6;6.7;;;;;;;19.8;11.6;99900;;;;
2022/03/23 14:01:35;;;;;;;3.6;6.7;;;;;;;19.8;12.3;99890;;;;
2022/03/23 14:11:47;;;;;;;4.6;8.7;;;;;;;19.8;10.4;99880;;;;
2022/03/23 14:22:34;;;;;;;4.6;8.7;;;;;;;19.8;11.9;99860;;;;
2022/03/23 14:32:35;;;;;;;4.6;8.7;;;;;;;19.9;11;99840;;;;
2022/03/23 14:42:35;;;;;;;4;7.3;;;;;;;19.8;11.4;99830;;;;
2022/03/23 14:53:34;;;;;;;4;7.3;;;;;;;19.9;9.9;99810;;;;
2022/03/23 15:03:35;;;;;;;3.5;7.4;;;;;;;19.9;13.3;99800;;;;
2022/03/23 15:13:35;;;;;;;3.5;7.4;;;;;;;19.9;12.9;99790;;;;
2022/03/23 15:23:35;;;;;;;3.5;7.4;;;;;;;20.4;14.4;99780;;;;
2022/03/23 15:34:35;;;;;;;3.6;6.9;;;;;;;22.6;13.9;99770;;;;
2022/03/23 15:44:38;;;;;;;3.6;6.9;;;;;;;24.2;11.8;99760;;;;
2022/03/23 15:54:35;;;;;;;3.6;6.9;;;;;;;24.6;11.4;99750;;;;
2022/03/23 16:05:35;;;;;;;5;10.8;;;;;;;25.3;12;99750;;;;
2022/03/23 16:16:36;;;;;;;5;10.8;;;;;;;25.2;12.9;99750;;;;
2022/03/23 16:26:36;;;;;;;5;10.8;;;;;;;23.2;13.2;99750;;;;
2022/03/23 16:36:35;;;;;;;6.9;10.8;;;;;;;21.4;15.7;99750;;;;
2022/03/23 16:47:35;;;;;;;6.9;10.8;;;;;;;19.3;16.3;99740;;;;
2022/03/23 16:58:38;;;;;;;6.9;10.8;;;;;;;17;18.2;99740;;;;
2022/03/23 17:18:35;;;;;;;13.1;20.1;;;;;;;14.2;21.3;99750;;;;
2022/03/23 17:29:35;;;;;;;13.1;20.1;;;;;;;13.1;22.9;99750;;;;
2022/03/23 17:39:35;;;;;;;20.1;27.8;;;;;;;12.3;24.3;99750;;;;
2022/03/23 17:50:35;;;;;;;20.1;27.8;;;;;;;11.7;25.8;99750;;;;
2022/03/23 18:01:35;;;;;;;20.1;27.8;;;;;;;11.2;25.9;99750;;;;
2022/03/23 18:11:36;;;;;;;24.1;32.3;;;;;;;10.8;26.3;99750;;;;
2022/03/23 18:22:35;;;;;;;24.1;32.3;;;;;;;10.4;27.2;99740;;;;
2022/03/23 18:33:35;;;;;;;21.1;26;;;;;;;10.3;27.7;99740;;;;
2022/03/23 18:44:35;;;;;;;21.1;26;;;;;;;10;28.3;99740;;;;
2022/03/23 18:55:35;;;;;;;21.1;26;;;;;;;9.8;28.1;99730;;;;
2022/03/23 19:06:35;;;;;;;19.2;24.3;;;;;;;9.2;29.2;99740;;;;
2022/03/23 19:17:35;;;;;;;19.2;24.3;;;;;;;8.6;30.3;99740;;;;
2022/03/23 19:27:35;;;;;;;19.2;24.3;;;;;;;8.2;31.7;99750;;;;
2022/03/23 19:38:35;;;;;;;40.5;50;;;;;;;7.7;33.3;99750;;;;
2022/03/23 19:48:35;;;;;;;40.5;50;;;;;;;8.3;34.3;99750;;;;
2022/03/23 19:59:35;;;;;;;40.5;50;;;;;;;8.6;33.3;99750;;;;
2022/03/23 20:09:35;;;;;;;25.1;33.3;;;;;;;8.6;33.7;99750;;;;
2022/03/23 20:20:35;;;;;;;25.1;33.3;;;;;;;8.4;33.2;99740;;;;
2022/03/23 20:31:35;;;;;;;25.1;33.3;;;;;;;8.2;35.2;99740;;;;
2022/03/23 20:41:35;;;;;;;34.3;42.4;;;;;;;7.9;35.5;99740;;;;
2022/03/23 20:52:35;;;;;;;34.3;42.4;;;;;;;9.7;32;99730;;;;
2022/03/23 21:02:35;;;;;;;34.3;42.4;;;;;;;9.3;32.8;99730;;;;
2022/03/23 21:12:35;;;;;;;33.3;45.6;;;;;;;8.9;32.8;99730;;;;
2022/03/23 21:23:35;;;;;;;33.3;45.6;;;;;;;8.2;34.2;99730;;;;
2022/03/23 21:33:35;;;;;;;28.6;36.7;;;;;;;7.8;35.3;99730;;;;
2022/03/23 21:44:35;;;;;;;28.6;36.7;;;;;;;6.7;40.9;99730;;;;
2022/03/23 21:54:36;;;;;;;28.6;36.7;;;;;;;5.9;44.5;99730;;;;
2022/03/23 22:05:35;;;;;;;55.6;72.1;;;;;;;5.3;44;99710;;;;
2022/03/23 22:16:35;;;;;;;55.6;72.1;;;;;;;5.4;43.8;99700;;;;
2022/03/23 22:26:35;;;;;;;55.6;72.1;;;;;;;5.7;43.7;99690;;;;
2022/03/23 22:37:36;;;;;;;28.7;37.3;;;;;;;6.2;42.9;99670;;;;
2022/03/23 22:47:35;;;;;;;28.7;37.3;;;;;;;5.8;43.4;99670;;;;
2022/03/23 22:58:35;;;;;;;28.7;37.3;;;;;;;5.3;43.6;99670;;;;
2022/03/23 23:09:36;;;;;;;31.1;38.7;;;;;;;4.8;45.5;99670;;;;
2022/03/23 23:20:35;;;;;;;31.1;38.7;;;;;;;4.1;46.7;99660;;;;
2022/03/23 23:30:35;;;;;;;31.1;38.7;;;;;;;3.8;50.5;99680;;;;
2022/03/23 23:41:35;;;;;;;36.1;45.3;;;;;;;3.3;50.9;99670;;;;
2022/03/23 23:51:35;;;;;;;36.1;45.3;;;;;;;3.3;49.6;99660;;;;
